首页
METAR-TAF:

METAR-TAF

机场 :

布鲁塞尔机场

布鲁塞尔, 比利时

纬度: 50-54N, 经度: 004-32E, 海拔: 55米

当前天气观测

该预报发布于24分钟前的14:20 UTC
风速10节,风向,在东转东北东转东南之间变化
温度 4°C
湿度 65%
气压 1005 hPa
能见度10公里或以上
多云层高于3400英尺
多云层高于3600英尺

METAR: EBBR 201420Z 10010KT 060V120 9999 BKN034 BKN036 04/M02 Q1005 NOSIG

时间: 15:44 (14:44 UTC)

预报

该预报发布于3小时和34分钟前的11:10 UTC
预报有效从20日的 12点(UTC)到 21日的 18点(UTC)
风速12节,风向
能见度10公里或以上
多云层高于2000英尺
几率 30% :
短暂存在
从 20日的 19点(UTC)到 20日的 21点(UTC)
散云层高于800英尺
多云层高于1200英尺

TAF: EBBR 201110Z 2012/2118 09012KT 9999 BKN020 PROB30 TEMPO 2019/2021 SCT008 BKN012

超过4000个机场的气象观测和天气预报(METAR&TAF报告)。

可查询的气象台以黄色和红色小点在地图上表示。

将鼠标移到小点上方,可查看气象台名称。

然后点击查看天气观测和预报。

如需切换地图:点击带黑十字的绿色按钮放大地图;点击带横线的绿色按钮缩小地图;或者点击绿色箭头查看邻近地区的地图。


METAR-TAF: